Time;durP1;ratioP1;P1;durP2;ratioP2;P2;SDS_P1;SDS_P2;PMS_P1;PMS_P2;Temp;Humidity;BMP_temperature;BMP_pressure;BME280_temperature;BME280_humidity;BME280_pressure;Samples;Min_cycle;Max_cycle;Signal;HPM_P1;HPM_P2
2022/12/13 00:02:12;;;;;;;70.72;24.60;;;;;;;-6.69;100.00;101146.34;5164267;28;20335;-72
2022/12/13 00:04:42;;;;;;;68.70;24.90;;;;;;;-6.70;100.00;101147.25;5180066;28;20033;-73
2022/12/13 00:07:12;;;;;;;69.70;24.27;;;;;;;-6.70;100.00;101146.41;5164395;28;20436;-74
2022/12/13 00:09:43;;;;;;;62.15;25.02;;;;;;;-6.71;100.00;101149.91;5164224;28;20038;-73
2022/12/13 00:12:13;;;;;;;74.80;25.13;;;;;;;-6.74;100.00;101153.47;5164124;28;20049;-73
2022/12/13 00:14:44;;;;;;;70.43;25.52;;;;;;;-6.76;100.00;101152.66;5164268;28;20026;-74
2022/12/13 00:17:14;;;;;;;71.93;23.40;;;;;;;-6.75;100.00;101151.75;5164168;28;20026;-73
2022/12/13 00:19:48;;;;;;;68.25;25.70;;;;;;;-6.74;100.00;101156.06;5164737;28;20054;-73
2022/12/13 00:22:18;;;;;;;74.72;26.17;;;;;;;-6.73;100.00;101147.34;5158815;28;20034;-73
2022/12/13 00:24:49;;;;;;;70.10;24.42;;;;;;;-6.73;100.00;101144.72;5165223;28;20346;-73
2022/12/13 00:27:19;;;;;;;62.92;23.08;;;;;;;-6.73;100.00;101144.72;5152930;28;20046;-75
2022/12/13 00:29:50;;;;;;;74.28;25.52;;;;;;;-6.74;100.00;101135.19;5164720;28;20027;-72
2022/12/13 00:32:20;;;;;;;72.80;25.80;;;;;;;-6.73;100.00;101139.50;5165194;28;20393;-73
2022/12/13 00:34:51;;;;;;;74.40;26.42;;;;;;;-6.72;100.00;101143.84;5165319;28;20018;-73
2022/12/13 00:37:21;;;;;;;81.50;27.60;;;;;;;-6.70;100.00;101135.97;5164319;28;20448;-73
2022/12/13 00:39:52;;;;;;;67.57;25.38;;;;;;;-6.70;100.00;101131.59;5178789;28;20519;-72
2022/12/13 00:42:22;;;;;;;70.72;26.45;;;;;;;-6.67;100.00;101123.69;5163937;28;20428;-74
2022/12/13 00:44:53;;;;;;;68.80;25.55;;;;;;;-6.66;100.00;101121.91;5163891;28;20018;-72
2022/12/13 00:47:23;;;;;;;80.85;26.38;;;;;;;-6.65;100.00;101124.47;5163370;28;20041;-74
2022/12/13 00:49:54;;;;;;;74.15;24.92;;;;;;;-6.64;100.00;101120.94;5163839;28;20053;-74
2022/12/13 00:52:24;;;;;;;64.95;23.58;;;;;;;-6.63;100.00;101117.44;5163362;28;20034;-74
2022/12/13 00:54:55;;;;;;;78.70;25.80;;;;;;;-6.64;100.00;101117.50;5163848;28;20072;-74
2022/12/13 00:57:26;;;;;;;61.58;22.83;;;;;;;-6.65;100.00;101114.03;5163148;28;20029;-74
2022/12/13 00:59:56;;;;;;;80.70;27.58;;;;;;;-6.65;100.00;101113.19;5163526;28;20026;-74
2022/12/13 01:02:27;;;;;;;80.30;24.55;;;;;;;-6.66;100.00;101111.47;5163918;28;20022;-74
2022/12/13 01:04:58;;;;;;;67.18;24.27;;;;;;;-6.70;100.00;101112.47;5163258;28;20105;-74
2022/12/13 01:07:28;;;;;;;66.57;23.33;;;;;;;-6.72;100.00;101109.06;5163295;28;20061;-74
2022/12/13 01:09:59;;;;;;;71.63;26.13;;;;;;;-6.72;100.00;101107.31;5163512;28;20038;-74
2022/12/13 01:12:29;;;;;;;72.50;25.77;;;;;;;-6.75;100.00;101106.56;5163286;28;20026;-74
2022/12/13 01:15:00;;;;;;;76.28;26.73;;;;;;;-6.76;100.00;101099.63;5163172;28;20415;-75
2022/12/13 01:17:30;;;;;;;66.32;25.10;;;;;;;-6.79;100.00;101098.81;5162591;28;20029;-75
2022/12/13 01:20:02;;;;;;;69.95;24.50;;;;;;;-6.79;100.00;101106.66;5162550;28;20404;-75
2022/12/13 01:22:33;;;;;;;76.78;26.42;;;;;;;-6.79;100.00;101101.44;5158676;28;20022;-74
2022/12/13 01:25:03;;;;;;;63.83;23.92;;;;;;;-6.82;100.00;101095.47;5163035;28;20546;-74
2022/12/13 01:27:34;;;;;;;78.13;25.30;;;;;;;-6.84;100.00;101095.50;5162351;28;20515;-74
2022/12/13 01:30:05;;;;;;;67.95;25.13;;;;;;;-6.83;100.00;101104.19;5178408;28;20391;-74
2022/12/13 01:32:35;;;;;;;64.68;24.40;;;;;;;-6.85;100.00;101095.56;5163520;28;20033;-74
2022/12/13 01:35:06;;;;;;;69.15;24.85;;;;;;;-6.85;100.00;101090.34;5163676;28;20507;-74
2022/12/13 01:37:37;;;;;;;64.90;24.95;;;;;;;-6.83;100.00;101094.63;5162780;28;20469;-75
2022/12/13 01:40:09;;;;;;;83.88;27.45;;;;;;;-6.80;100.00;101098.88;5162801;28;20507;-75
2022/12/13 01:42:40;;;;;;;79.53;25.23;;;;;;;-6.82;100.00;101106.75;5163002;28;20118;-75
2022/12/13 01:45:23;;;;;;;71.20;24.63;;;;;;;-6.86;100.00;101112.97;5162980;28;20105;-74
2022/12/13 01:47:59;;;;;;;74.47;24.77;;;;;;;-6.89;100.00;101114.81;5162425;28;20041;-74
2022/12/13 01:50:37;;;;;;;68.50;22.15;;;;;;;-6.92;100.00;101117.53;5162842;28;20034;-74
2022/12/13 01:53:13;;;;;;;59.15;21.90;;;;;;;-6.96;100.00;101124.59;5162776;28;20030;-75
2022/12/13 01:55:46;;;;;;;69.65;24.20;;;;;;;-6.96;100.00;101121.16;5162918;28;20084;-75
2022/12/13 01:58:17;;;;;;;69.10;25.70;;;;;;;-6.96;100.00;101136.78;5162299;28;20088;-75
2022/12/13 02:00:49;;;;;;;62.13;22.48;;;;;;;-6.96;100.00;101126.38;5163220;28;20073;-76
2022/12/13 02:03:22;;;;;;;61.45;24.13;;;;;;;-6.95;100.00;101117.63;5163176;28;20033;-75
2022/12/13 02:05:56;;;;;;;70.22;26.15;;;;;;;-6.95;100.00;101115.03;5162011;28;20022;-76
2022/12/13 02:08:28;;;;;;;75.38;23.85;;;;;;;-6.96;100.00;101108.09;5162756;28;20027;-76
2022/12/13 02:11:00;;;;;;;62.10;23.27;;;;;;;-6.98;100.00;101104.66;5162916;28;20030;-76
2022/12/13 02:13:30;;;;;;;63.58;23.80;;;;;;;-7.01;100.00;101100.41;5162618;28;20030;-75
2022/12/13 02:16:26;;;;;;;73.68;24.00;;;;;;;-7.02;100.00;101106.56;5163101;28;20354;-75
2022/12/13 02:19:18;;;;;;;69.93;24.52;;;;;;;-7.01;100.00;101102.19;5162745;28;20431;-75
2022/12/13 02:22:09;;;;;;;71.65;27.40;;;;;;;-7.01;100.00;101095.22;5157081;28;20031;-76
2022/12/13 02:25:02;;;;;;;73.10;25.00;;;;;;;-6.98;100.00;101089.88;5162988;28;20102;-75
2022/12/13 02:27:32;;;;;;;71.28;24.13;;;;;;;-6.96;100.00;101088.09;5169757;28;20064;-74
2022/12/13 02:30:25;;;;;;;66.20;24.33;;;;;;;-6.97;100.00;101088.16;5162534;28;20117;-76
2022/12/13 02:32:59;;;;;;;64.97;23.35;;;;;;;-6.99;100.00;101093.38;5162812;28;20064;-75
2022/12/13 02:35:46;;;;;;;72.47;23.63;;;;;;;-7.01;100.00;101083.94;5167188;28;20353;-76
2022/12/13 02:38:25;;;;;;;67.45;22.85;;;;;;;-7.05;100.00;101085.78;5166387;28;20092;-77
2022/12/13 02:41:05;;;;;;;72.78;26.85;;;;;;;-7.09;100.00;101090.22;5166880;28;20436;-75
2022/12/13 02:43:54;;;;;;;72.22;24.02;;;;;;;-7.14;100.00;101089.50;5154497;28;20038;-75
2022/12/13 02:46:29;;;;;;;62.13;24.15;;;;;;;-7.14;100.00;101079.09;5166276;28;20030;-76
2022/12/13 02:49:01;;;;;;;68.35;22.90;;;;;;;-7.12;100.00;101087.72;5165948;28;20084;-76
2022/12/13 02:51:32;;;;;;;76.90;25.48;;;;;;;-7.11;100.00;101083.38;5166687;28;20084;-76
2022/12/13 02:54:03;;;;;;;79.35;24.23;;;;;;;-7.11;100.00;101083.38;5181553;28;20030;-76
2022/12/13 02:56:34;;;;;;;67.63;23.10;;;;;;;-7.12;100.00;101077.28;5197819;28;20030;-76
2022/12/13 02:59:13;;;;;;;74.20;24.77;;;;;;;-7.12;100.00;101082.50;5165980;28;20030;-73
2022/12/13 03:01:54;;;;;;;78.00;24.88;;;;;;;-7.11;100.00;101081.59;5166298;28;20022;-74
2022/12/13 03:06:28;;;;;;;69.10;23.45;;;;;;;-7.11;100.00;101075.53;5166169;28;20015;-75
2022/12/13 03:07:43;;;;;;;65.20;22.45;;;;;;;-7.12;100.00;101077.28;5165329;28;20395;-74
2022/12/13 03:10:25;;;;;;;70.20;23.92;;;;;;;-7.14;100.00;101080.84;5165877;28;20061;-74
2022/12/13 03:13:35;;;;;;;67.00;23.05;;;;;;;-7.16;100.00;101080.91;5165883;28;20022;-75
2022/12/13 03:16:35;;;;;;;65.60;21.88;;;;;;;-7.16;100.00;101093.94;5165691;28;20045;-75
2022/12/13 03:19:14;;;;;;;68.90;22.52;;;;;;;-7.15;100.00;101087.81;5164784;28;20022;-74
2022/12/13 03:21:52;;;;;;;79.82;24.08;;;;;;;-7.15;100.00;101084.34;5160221;28;20149;-75
2022/12/13 03:24:23;;;;;;;74.22;23.23;;;;;;;-7.16;100.00;101093.94;5165296;28;20113;-75
2022/12/13 03:26:54;;;;;;;71.82;23.77;;;;;;;-7.14;100.00;101089.50;5153477;28;20118;-75
2022/12/13 03:29:24;;;;;;;77.63;24.65;;;;;;;-7.12;100.00;101079.91;5165814;28;20026;-76
2022/12/13 03:31:55;;;;;;;67.47;23.98;;;;;;;-7.09;100.00;101079.78;5165793;28;20508;-76
2022/12/13 03:34:25;;;;;;;63.90;24.10;;;;;;;-7.07;100.00;101083.22;5165706;28;20034;-75
2022/12/13 03:36:55;;;;;;;70.20;24.98;;;;;;;-7.05;100.00;101081.41;5164599;28;20019;-76
2022/12/13 03:39:26;;;;;;;73.88;23.98;;;;;;;-7.00;100.00;101086.47;5165446;28;20041;-75
2022/12/13 03:41:57;;;;;;;74.75;23.02;;;;;;;-6.96;100.00;101087.25;5180791;28;20026;-75
2022/12/13 03:44:27;;;;;;;74.85;25.25;;;;;;;-6.94;100.00;101083.66;5165390;28;20026;-75
2022/12/13 03:46:58;;;;;;;70.97;23.50;;;;;;;-6.94;100.00;101075.00;5164895;28;20146;-76
2022/12/13 03:49:28;;;;;;;69.32;22.80;;;;;;;-6.95;100.00;101068.06;5180099;28;20061;-75
2022/12/13 03:51:58;;;;;;;67.70;21.15;;;;;;;-6.95;100.00;101071.53;5165512;28;20468;-75
2022/12/13 03:54:29;;;;;;;68.32;23.83;;;;;;;-6.94;100.00;101060.19;5165190;28;20030;-73
2022/12/13 03:57:00;;;;;;;69.53;22.67;;;;;;;-6.87;100.00;101058.25;5164959;28;20092;-74
2022/12/13 03:59:30;;;;;;;74.22;24.35;;;;;;;-6.84;100.00;101051.16;5165080;28;20026;-77
2022/12/13 04:02:00;;;;;;;67.60;22.55;;;;;;;-6.82;100.00;101051.13;5164944;28;20022;-75
2022/12/13 04:04:31;;;;;;;73.05;24.10;;;;;;;-6.80;100.00;101046.69;5165115;28;20057;-75
2022/12/13 04:07:01;;;;;;;70.45;23.90;;;;;;;-6.76;100.00;101043.09;5179662;28;20113;-75
2022/12/13 04:09:32;;;;;;;69.05;24.63;;;;;;;-6.72;100.00;101049.06;5164983;28;20069;-73
2022/12/13 04:14:51;;;;;;;63.88;20.73;;;;;;;-6.69;100.00;101044.56;5165143;28;20018;-74
2022/12/13 04:17:22;;;;;;;64.88;22.55;;;;;;;-6.68;100.00;101048.03;5164513;28;20150;-74
2022/12/13 04:19:52;;;;;;;59.65;22.63;;;;;;;-6.69;100.00;101047.19;5165030;28;20033;-73
2022/12/13 04:22:22;;;;;;;64.97;22.50;;;;;;;-6.69;100.00;101046.34;5157967;28;20041;-74
2022/12/13 04:24:53;;;;;;;59.40;21.15;;;;;;;-6.72;100.00;101036.88;5164329;28;20030;-75
2022/12/13 04:27:23;;;;;;;62.85;20.77;;;;;;;-6.76;100.00;101035.25;5152473;28;20100;-75
2022/12/13 04:29:54;;;;;;;63.92;21.48;;;;;;;-6.80;100.00;101038.88;5164544;28;20030;-75
2022/12/13 04:32:24;;;;;;;56.03;20.35;;;;;;;-6.86;100.00;101033.88;5164635;28;20023;-76
2022/12/13 04:34:55;;;;;;;64.97;22.70;;;;;;;-6.90;100.00;101029.66;5164608;28;20031;-76
2022/12/13 04:37:25;;;;;;;71.38;21.70;;;;;;;-6.94;100.00;101033.25;5164444;28;20049;-75
2022/12/13 04:39:56;;;;;;;58.25;22.40;;;;;;;-6.97;100.00;101022.94;5164391;28;20153;-76
2022/12/13 04:42:26;;;;;;;63.83;21.58;;;;;;;-6.98;100.00;101021.22;5164564;28;20029;-73
2022/12/13 04:44:57;;;;;;;63.08;22.65;;;;;;;-6.98;100.00;101016.00;5164275;28;20511;-74
2022/12/13 04:47:27;;;;;;;58.55;21.40;;;;;;;-6.99;100.00;101016.91;5163806;28;20026;-73
2022/12/13 04:49:58;;;;;;;53.13;20.70;;;;;;;-7.00;100.00;101007.38;5163926;28;20026;-74
2022/12/13 04:52:28;;;;;;;68.72;21.92;;;;;;;-7.02;100.00;101009.19;5164153;28;20464;-74
2022/12/13 04:54:59;;;;;;;56.58;20.77;;;;;;;-7.05;100.00;101013.59;5164527;28;20066;-73
2022/12/13 04:57:30;;;;;;;52.40;21.02;;;;;;;-7.09;100.00;101013.75;5163298;28;20049;-73
2022/12/13 05:00:02;;;;;;;60.17;20.23;;;;;;;-7.13;100.00;101015.63;5163740;28;20022;-73
2022/12/13 05:02:33;;;;;;;58.95;20.77;;;;;;;-7.15;100.00;101022.63;5163801;28;20076;-72
2022/12/13 05:05:03;;;;;;;55.13;19.13;;;;;;;-7.18;100.00;101021.84;5163978;28;20034;-73
2022/12/13 05:07:35;;;;;;;61.00;19.83;;;;;;;-7.22;100.00;101017.69;5178712;28;20545;-73
2022/12/13 05:10:05;;;;;;;61.28;21.25;;;;;;;-7.26;100.00;101018.66;5163806;28;20034;-73
2022/12/13 05:12:36;;;;;;;55.50;21.25;;;;;;;-7.32;100.00;101012.75;5163404;28;20022;-74
2022/12/13 05:15:07;;;;;;;63.00;20.05;;;;;;;-7.35;100.00;101014.59;5163688;28;20019;-73
2022/12/13 05:17:38;;;;;;;65.10;21.17;;;;;;;-7.39;100.00;101020.78;5162457;28;20084;-74
2022/12/13 05:20:09;;;;;;;61.05;21.67;;;;;;;-7.43;100.00;101012.25;5162022;28;20404;-73
2022/12/13 05:22:39;;;;;;;53.20;20.15;;;;;;;-7.48;100.00;101015.88;5160062;28;20026;-74
2022/12/13 05:25:09;;;;;;;51.95;19.77;;;;;;;-7.56;100.00;101031.75;5161503;28;20080;-74
2022/12/13 05:27:40;;;;;;;58.67;20.65;;;;;;;-7.62;100.00;101022.38;5153494;28;20026;-74
2022/12/13 05:30:11;;;;;;;62.13;21.02;;;;;;;-7.64;100.00;101018.94;5163505;28;20443;-73
2022/12/13 05:32:41;;;;;;;60.67;21.73;;;;;;;-7.65;100.00;101032.03;5163861;28;20034;-74
2022/12/13 05:35:14;;;;;;;52.65;20.67;;;;;;;-7.67;100.00;101032.09;5163534;28;20033;-75
2022/12/13 05:37:45;;;;;;;55.70;21.00;;;;;;;-7.71;100.00;101030.47;5162683;28;20022;-74
2022/12/13 05:40:15;;;;;;;54.95;19.50;;;;;;;-7.78;100.00;101033.28;5163415;28;20037;-74
2022/12/13 05:42:46;;;;;;;58.88;19.52;;;;;;;-7.86;100.00;101031.78;5163601;28;20030;-74
2022/12/13 05:45:17;;;;;;;56.60;18.90;;;;;;;-7.90;100.00;101040.56;5163118;28;20026;-74
2022/12/13 05:47:48;;;;;;;65.80;22.52;;;;;;;-7.92;100.00;101044.97;5162931;28;20034;-74
2022/12/13 05:50:18;;;;;;;59.83;20.88;;;;;;;-7.96;100.00;101045.97;5163019;28;20041;-73
2022/12/13 05:52:49;;;;;;;62.17;20.38;;;;;;;-8.01;100.00;101037.44;5178651;28;20509;-74
2022/12/13 05:55:19;;;;;;;53.75;20.23;;;;;;;-8.04;100.00;101037.50;5163357;28;20487;-74
2022/12/13 05:57:50;;;;;;;56.42;19.15;;;;;;;-8.06;100.00;101028.91;5162797;28;20023;-74
2022/12/13 06:00:20;;;;;;;58.97;19.55;;;;;;;-8.07;100.00;101037.59;5163042;28;20098;-74
2022/12/13 06:02:51;;;;;;;66.38;21.17;;;;;;;-8.11;100.00;101034.22;5162808;28;20037;-74
2022/12/13 06:05:21;;;;;;;66.65;21.45;;;;;;;-8.12;100.00;101045.53;5163113;28;20028;-72
2022/12/13 06:07:54;;;;;;;70.40;23.52;;;;;;;-8.13;100.00;101038.63;5149940;28;20022;-73
2022/12/13 06:10:26;;;;;;;62.90;20.25;;;;;;;-8.14;100.00;101044.72;5166742;28;20122;-74
2022/12/13 06:12:56;;;;;;;63.15;22.52;;;;;;;-8.19;100.00;101046.59;5167166;28;20030;-73
2022/12/13 06:15:26;;;;;;;64.88;21.95;;;;;;;-8.22;100.00;101028.47;5167349;28;20149;-72
2022/12/13 06:18:00;;;;;;;66.93;23.50;;;;;;;-8.22;100.00;101023.28;5166878;28;20152;-73
2022/12/13 06:20:30;;;;;;;66.28;22.20;;;;;;;-8.22;100.00;101017.22;5162441;28;20037;-73
2022/12/13 06:23:01;;;;;;;69.50;23.50;;;;;;;-8.23;100.00;101028.50;5166311;28;20026;-74
2022/12/13 06:25:31;;;;;;;73.28;25.75;;;;;;;-8.23;100.00;101010.28;5162065;28;20052;-73
2022/12/13 06:28:02;;;;;;;70.30;26.30;;;;;;;-8.25;100.00;101028.56;5159322;28;20500;-72
2022/12/13 06:30:32;;;;;;;88.22;27.50;;;;;;;-8.26;100.00;101024.25;5167289;28;20496;-72
2022/12/13 06:33:02;;;;;;;91.20;32.33;;;;;;;-8.24;100.00;101022.44;5167309;28;20100;-73
2022/12/13 06:35:33;;;;;;;92.63;30.48;;;;;;;-8.23;100.00;101011.16;5167071;28;20030;-72
2022/12/13 06:38:04;;;;;;;86.80;27.98;;;;;;;-8.23;100.00;101013.75;5166526;28;20494;-72
2022/12/13 06:40:34;;;;;;;91.53;30.23;;;;;;;-8.24;100.00;101011.19;5167328;28;20022;-73
2022/12/13 06:43:05;;;;;;;85.47;29.90;;;;;;;-8.26;100.00;101008.63;5167074;28;20392;-71
2022/12/13 06:45:39;;;;;;;83.47;30.67;;;;;;;-8.29;100.00;101013.91;5166618;28;20033;-71
2022/12/13 06:48:10;;;;;;;85.65;31.38;;;;;;;-8.30;100.00;101000.94;5166552;28;20033;-71
2022/12/13 06:50:41;;;;;;;88.20;27.27;;;;;;;-8.35;100.00;101003.69;5156315;28;20053;-71
2022/12/13 06:53:11;;;;;;;81.75;28.17;;;;;;;-8.37;100.00;101002.91;5162658;28;20018;-71
2022/12/13 06:55:42;;;;;;;73.20;27.65;;;;;;;-8.41;100.00;101004.75;5165471;28;20465;-71
2022/12/13 06:58:12;;;;;;;78.10;25.40;;;;;;;-8.46;100.00;101003.16;5164700;28;20022;-71
2022/12/13 07:00:43;;;;;;;73.18;25.67;;;;;;;-8.49;100.00;101008.44;5164892;28;20034;-71
2022/12/13 07:03:14;;;;;;;94.75;27.30;;;;;;;-8.54;100.00;101003.34;5179836;28;20444;-71
2022/12/13 07:05:44;;;;;;;79.18;27.35;;;;;;;-8.55;100.00;101011.22;5164994;28;20074;-71
2022/12/13 07:08:15;;;;;;;77.93;29.02;;;;;;;-8.57;100.00;101000.00;5164760;28;20026;-71
2022/12/13 07:10:45;;;;;;;82.75;30.33;;;;;;;-8.56;100.00;101001.72;5179673;28;20117;-71
2022/12/13 07:13:16;;;;;;;89.63;30.83;;;;;;;-8.56;100.00;101009.50;5164787;28;20080;-71
2022/12/13 07:15:46;;;;;;;88.65;31.38;;;;;;;-8.57;100.00;101008.66;5164763;28;20105;-71
2022/12/13 07:18:17;;;;;;;85.88;34.92;;;;;;;-8.56;100.00;101006.91;5164533;28;20085;-71
2022/12/13 07:20:47;;;;;;;95.20;35.63;;;;;;;-8.55;100.00;101008.63;5158305;28;20032;-71
2022/12/13 07:23:18;;;;;;;89.43;34.22;;;;;;;-8.55;100.00;101011.22;5163369;28;20026;-71
2022/12/13 07:25:53;;;;;;;93.80;32.17;;;;;;;-8.56;100.00;101009.50;5172567;28;20473;-71
2022/12/13 07:28:23;;;;;;;87.65;31.92;;;;;;;-8.56;100.00;101015.56;5159287;28;20032;-71
2022/12/13 07:30:54;;;;;;;81.35;30.27;;;;;;;-8.58;100.00;101014.78;5164647;28;20037;-71
2022/12/13 07:33:24;;;;;;;80.55;28.40;;;;;;;-8.61;100.00;101009.63;5164231;28;20058;-71
2022/12/13 07:36:03;;;;;;;75.50;28.80;;;;;;;-8.64;100.00;101013.16;5164471;28;20054;-71
2022/12/13 07:38:34;;;;;;;79.30;27.45;;;;;;;-8.64;100.00;101015.75;5163501;28;20102;-71
2022/12/13 07:41:05;;;;;;;76.38;27.42;;;;;;;-8.64;100.00;101026.16;5163893;28;20038;-71
2022/12/13 07:43:36;;;;;;;81.47;25.98;;;;;;;-8.64;100.00;101027.91;5164221;28;20036;-71
2022/12/13 07:46:07;;;;;;;77.75;25.27;;;;;;;-8.63;100.00;101022.69;5164045;28;20038;-71
2022/12/13 07:48:37;;;;;;;74.80;28.27;;;;;;;-8.61;100.00;101036.50;5164060;28;20365;-71
2022/12/13 07:51:10;;;;;;;79.35;26.75;;;;;;;-8.56;100.00;101031.19;5163814;28;20027;-71
2022/12/13 07:53:41;;;;;;;68.40;25.90;;;;;;;-8.50;100.00;101025.81;5164105;28;20022;-71
2022/12/13 07:56:11;;;;;;;80.75;26.17;;;;;;;-8.42;100.00;101033.41;5164139;28;20554;-71
2022/12/13 07:58:42;;;;;;;77.30;27.90;;;;;;;-8.34;100.00;101032.25;5163928;28;20088;-71
2022/12/13 08:01:13;;;;;;;84.07;27.85;;;;;;;-8.25;100.00;101032.91;5163792;28;20022;-71
2022/12/13 08:03:47;;;;;;;77.78;25.95;;;;;;;-8.16;100.00;101041.31;5163660;28;20083;-71
2022/12/13 08:06:18;;;;;;;87.00;29.13;;;;;;;-8.05;100.00;101033.19;5163881;28;20073;-71
2022/12/13 08:08:50;;;;;;;77.18;27.02;;;;;;;-7.92;100.00;101041.53;5163468;28;20037;-71
2022/12/13 08:11:20;;;;;;;71.45;28.38;;;;;;;-7.82;100.00;101041.22;5163527;28;20377;-71
2022/12/13 08:13:52;;;;;;;76.60;25.05;;;;;;;-7.71;100.00;101040.88;5163128;28;20069;-71
2022/12/13 08:16:23;;;;;;;75.85;30.05;;;;;;;-7.53;100.00;101051.63;5163690;28;20010;-71
2022/12/13 08:18:53;;;;;;;70.32;25.73;;;;;;;-7.36;100.00;101041.56;5163181;28;20041;-71
2022/12/13 08:21:24;;;;;;;78.13;28.13;;;;;;;-7.18;100.00;101050.53;5157828;28;20019;-71
2022/12/13 08:23:54;;;;;;;73.80;26.02;;;;;;;-7.01;100.00;101048.25;5163324;28;20084;-71
2022/12/13 08:26:25;;;;;;;79.10;26.73;;;;;;;-6.74;100.00;101041.28;5166191;28;20080;-71
2022/12/13 08:28:55;;;;;;;70.22;26.50;;;;;;;-6.33;100.00;101046.81;5163135;28;20485;-71
2022/12/13 08:31:25;;;;;;;75.90;25.35;;;;;;;-5.98;100.00;101047.31;5177069;28;20030;-71
2022/12/13 08:33:56;;;;;;;64.25;24.30;;;;;;;-5.58;100.00;101044.88;5163396;28;20046;-71
2022/12/13 08:36:27;;;;;;;67.93;25.05;;;;;;;-5.03;100.00;101049.69;5163209;28;20105;-71
2022/12/13 08:39:01;;;;;;;53.90;22.55;;;;;;;-4.55;100.00;101059.06;5162716;28;20030;-72
2022/12/13 08:41:31;;;;;;;57.00;23.35;;;;;;;-4.15;100.00;101057.34;5162720;28;20038;-71
2022/12/13 08:44:02;;;;;;;63.03;22.90;;;;;;;-3.82;100.00;101050.56;5163124;28;20070;-71
2022/12/13 08:46:32;;;;;;;50.92;22.70;;;;;;;-3.54;100.00;101059.81;5162510;28;20361;-71
2022/12/13 08:49:03;;;;;;;53.08;21.27;;;;;;;-3.39;100.00;101067.81;5162811;28;20035;-71
2022/12/13 08:51:33;;;;;;;57.55;21.85;;;;;;;-3.26;100.00;101062.00;5162165;28;20448;-71
2022/12/13 08:54:04;;;;;;;49.75;21.40;;;;;;;-3.08;100.00;101066.34;5162854;28;20064;-71
2022/12/13 08:56:34;;;;;;;46.40;20.58;;;;;;;-2.98;100.00;101070.22;5177927;28;20023;-71
2022/12/13 08:59:05;;;;;;;55.17;22.30;;;;;;;-3.05;100.00;101068.84;5162954;28;20506;-72
2022/12/13 09:01:35;;;;;;;48.20;22.05;;;;;;;-3.01;100.00;101064.28;5162376;28;20066;-71
2022/12/13 09:04:06;;;;;;;51.65;22.25;;;;;;;-2.66;100.00;101063.41;5162456;28;20486;-72
2022/12/13 09:06:36;;;;;;;54.22;22.45;;;;;;;-2.19;100.00;101064.56;5162554;28;20023;-72
2022/12/13 09:09:07;;;;;;;53.22;22.27;;;;;;;-1.76;100.00;101064.91;5162383;28;20042;-72
2022/12/13 09:11:40;;;;;;;55.38;22.17;;;;;;;-1.31;100.00;101072.06;5162413;28;20247;-72
2022/12/13 09:14:11;;;;;;;50.55;21.42;;;;;;;-0.86;100.00;101079.19;5162172;28;20026;-72
2022/12/13 09:16:42;;;;;;;50.80;21.17;;;;;;;-0.60;100.00;101064.53;5162842;28;20101;-72
2022/12/13 09:19:12;;;;;;;53.50;22.05;;;;;;;-0.30;100.00;101064.50;5162387;28;20141;-72
2022/12/13 09:21:43;;;;;;;46.95;19.65;;;;;;;-0.16;100.00;101079.47;5156614;28;20506;-72
2022/12/13 09:24:14;;;;;;;49.58;22.05;;;;;;;-0.52;100.00;101074.59;5162481;28;20049;-72
2022/12/13 09:26:44;;;;;;;42.92;20.20;;;;;;;-1.17;100.00;101066.06;5149766;28;20109;-72
2022/12/13 09:29:15;;;;;;;45.17;19.77;;;;;;;-1.53;100.00;101074.19;5162225;28;20452;-72
2022/12/13 09:31:45;;;;;;;47.28;21.50;;;;;;;-1.47;100.00;101077.34;5162124;28;20105;-72
2022/12/13 09:34:16;;;;;;;44.75;20.08;;;;;;;-1.07;100.00;101069.88;5162780;28;20126;-72
2022/12/13 09:36:47;;;;;;;47.70;20.83;;;;;;;-0.45;100.00;101072.44;5159756;28;20028;-72
2022/12/13 09:39:17;;;;;;;51.35;21.33;;;;;;;-0.08;100.00;101086.94;5158006;28;20035;-73
2022/12/13 09:41:55;;;;;;;47.90;21.98;;;;;;;0.15;100.00;101072.34;5158548;28;20030;-72
2022/12/13 09:44:31;;;;;;;51.92;22.27;;;;;;;0.33;100.00;101063.31;5160995;28;20033;-72
2022/12/13 09:47:11;;;;;;;42.05;18.58;;;;;;;0.11;100.00;101062.94;5160779;28;20469;-72
2022/12/13 09:49:44;;;;;;;47.90;20.15;;;;;;;-0.55;100.00;101065.09;5160649;28;20034;-73
2022/12/13 09:52:19;;;;;;;53.00;20.90;;;;;;;-0.99;100.00;101057.13;5160966;28;20110;-73
2022/12/13 09:54:55;;;;;;;52.47;20.58;;;;;;;-1.41;100.00;101058.56;5176122;28;20029;-74
2022/12/13 09:57:29;;;;;;;49.63;19.90;;;;;;;-1.68;100.00;101054.84;5160886;28;20070;-73
2022/12/13 10:00:11;;;;;;;50.42;20.50;;;;;;;-1.76;100.00;101054.38;5160676;28;20026;-73
2022/12/13 10:02:58;;;;;;;54.63;20.38;;;;;;;-1.88;100.00;101054.13;5160926;28;20038;-74
2022/12/13 10:05:35;;;;;;;45.85;19.23;;;;;;;-1.87;100.00;101053.19;5160954;28;20030;-73
2022/12/13 10:08:15;;;;;;;51.22;20.55;;;;;;;-1.87;100.00;101062.84;5192342;28;20026;-73
2022/12/13 10:10:48;;;;;;;47.58;19.45;;;;;;;-1.88;100.00;101050.63;5160083;28;20034;-73
2022/12/13 10:13:30;;;;;;;51.92;20.88;;;;;;;-1.73;100.00;101048.97;5161411;28;20388;-73
2022/12/13 10:16:06;;;;;;;50.00;19.30;;;;;;;-1.58;100.00;101048.97;5159857;28;20361;-72
2022/12/13 10:18:41;;;;;;;49.10;20.38;;;;;;;-1.51;100.00;101048.63;5160658;28;20022;-73
2022/12/13 10:21:33;;;;;;;55.53;20.87;;;;;;;-1.44;100.00;101050.03;5154742;28;20432;-73
2022/12/13 10:24:10;;;;;;;55.25;21.58;;;;;;;-1.34;100.00;101040.69;5161126;28;20313;-73
2022/12/13 10:26:42;;;;;;;49.55;20.92;;;;;;;-1.13;100.00;101044.72;5148579;28;20135;-73
2022/12/13 10:29:13;;;;;;;49.38;21.15;;;;;;;-1.06;100.00;101034.69;5160436;28;20033;-73
2022/12/13 10:31:49;;;;;;;52.47;20.15;;;;;;;-1.10;100.00;101028.78;5160229;28;20030;-73
2022/12/13 10:34:23;;;;;;;49.15;19.90;;;;;;;-1.05;100.00;101026.72;5176229;28;20080;-73
2022/12/13 10:36:54;;;;;;;57.22;20.42;;;;;;;-0.91;100.00;101025.06;5160411;28;20038;-72
2022/12/13 10:39:39;;;;;;;54.05;21.80;;;;;;;-0.73;100.00;101023.16;5160976;28;20023;-72
2022/12/13 10:42:18;;;;;;;49.63;20.40;;;;;;;-0.72;100.00;101011.69;5149227;28;20038;-72
2022/12/13 10:45:09;;;;;;;48.47;21.35;;;;;;;-0.70;100.00;101008.03;5160543;28;20019;-73
2022/12/13 10:47:42;;;;;;;51.75;20.23;;;;;;;-0.72;100.00;101016.94;5154253;28;20030;-73
2022/12/13 10:50:23;;;;;;;45.55;20.17;;;;;;;-0.62;100.00;101005.78;5160028;28;20514;-73
2022/12/13 10:52:55;;;;;;;51.50;21.45;;;;;;;-0.48;100.00;101007.59;5160467;28;20019;-73
2022/12/13 10:55:39;;;;;;;50.13;21.52;;;;;;;-0.28;100.00;101006.41;5162738;28;20022;-73
2022/12/13 10:58:18;;;;;;;47.70;19.95;;;;;;;-0.28;100.00;100996.69;5163908;28;20353;-73
2022/12/13 11:00:48;;;;;;;51.25;21.38;;;;;;;-0.17;100.00;100989.94;5163866;28;20034;-73
2022/12/13 11:03:31;;;;;;;51.92;20.90;;;;;;;-0.07;100.00;100988.41;5164358;28;20022;-73
2022/12/13 11:06:18;;;;;;;46.70;20.08;;;;;;;0.05;100.00;100989.44;5164156;28;20026;-73
2022/12/13 11:08:49;;;;;;;48.33;19.40;;;;;;;-0.01;100.00;100990.66;5161929;28;20041;-73
2022/12/13 11:11:29;;;;;;;50.85;19.25;;;;;;;-0.04;100.00;100985.59;5163564;28;20034;-73
2022/12/13 11:14:00;;;;;;;50.25;19.85;;;;;;;-0.05;100.00;100986.53;5164072;28;20026;-74
2022/12/13 11:16:35;;;;;;;49.85;21.48;;;;;;;0.05;100.00;100986.81;5164292;28;20535;-74
2022/12/13 11:19:37;;;;;;;55.05;20.60;;;;;;;-0.01;100.00;100977.47;5163852;28;20034;-74
2022/12/13 11:22:09;;;;;;;47.83;19.35;;;;;;;-0.04;100.00;100972.41;5163659;28;20511;-74
2022/12/13 11:24:41;;;;;;;54.40;19.23;;;;;;;0.03;100.00;100971.06;5179253;28;20026;-74
2022/12/13 11:27:39;;;;;;;54.90;20.40;;;;;;;0.13;100.00;100961.66;5151505;28;20029;-74
2022/12/13 11:30:14;;;;;;;40.78;17.67;;;;;;;0.15;100.00;100965.06;5163496;28;20046;-74
2022/12/13 11:33:11;;;;;;;;;;;;;;;0.13;100.00;100961.66;5164079;28;20037;-74